Time;durP1;ratioP1;P1;durP2;ratioP2;P2;SDS_P1;SDS_P2;PMS_P1;PMS_P2;Temp;Humidity;BMP_temperature;BMP_pressure;BME280_temperature;BME280_humidity;BME280_pressure;Samples;Min_cycle;Max_cycle;Signal;HPM_P1;HPM_P2
2023/12/18 00:01:13;;;;;;;40.08;16.45;;;;;;;;;;5127341;27;20042;-80
2023/12/18 00:03:39;;;;;;;43.13;19.13;;;;;;;;;;5128008;27;20098;-81
2023/12/18 00:06:07;;;;;;;31.50;15.27;;;;;;;;;;5127323;27;20034;-81
2023/12/18 00:08:33;;;;;;;33.78;18.98;;;;;;;;;;5127921;27;20157;-80
2023/12/18 00:10:59;;;;;;;38.90;16.77;;;;;;;;;;5124553;27;20050;-80
2023/12/18 00:13:25;;;;;;;35.60;17.20;;;;;;;;;;5117761;27;20042;-83
2023/12/18 00:15:51;;;;;;;49.42;20.15;;;;;;;;;;5116310;27;20173;-82
2023/12/18 00:18:17;;;;;;;35.08;17.45;;;;;;;;;;5105629;27;20550;-80
2023/12/18 00:20:44;;;;;;;32.28;16.15;;;;;;;;;;5115335;27;20053;-81
2023/12/18 00:23:15;;;;;;;29.90;17.58;;;;;;;;;;5113652;27;20038;-80
2023/12/18 00:25:43;;;;;;;36.00;16.13;;;;;;;;;;5122514;27;20074;-80
2023/12/18 00:28:09;;;;;;;43.20;17.95;;;;;;;;;;5115378;27;20039;-82
2023/12/18 00:30:35;;;;;;;36.50;17.38;;;;;;;;;;5100751;27;20043;-81
2023/12/18 00:33:02;;;;;;;41.85;18.75;;;;;;;;;;5100909;27;20368;-81
2023/12/18 00:35:28;;;;;;;42.00;17.88;;;;;;;;;;5106865;27;20042;-80
2023/12/18 00:37:55;;;;;;;30.48;18.02;;;;;;;;;;5103229;27;20043;-81
2023/12/18 00:40:21;;;;;;;42.42;18.80;;;;;;;;;;5110859;27;20050;-81
2023/12/18 00:42:47;;;;;;;33.22;17.80;;;;;;;;;;5120022;27;20051;-81
2023/12/18 00:45:17;;;;;;;38.90;17.00;;;;;;;;;;5118400;27;20129;-81
2023/12/18 00:47:43;;;;;;;31.08;18.45;;;;;;;;;;5095936;27;20217;-82
2023/12/18 00:50:09;;;;;;;37.55;18.92;;;;;;;;;;5101314;27;20038;-82
2023/12/18 00:52:36;;;;;;;42.83;17.90;;;;;;;;;;5129101;27;20046;-81
2023/12/18 00:55:03;;;;;;;43.20;18.65;;;;;;;;;;5108808;27;20035;-80
2023/12/18 00:57:29;;;;;;;36.55;17.80;;;;;;;;;;5114493;27;20135;-80
2023/12/18 00:59:55;;;;;;;36.05;17.25;;;;;;;;;;5104052;27;20042;-80
2023/12/18 01:02:21;;;;;;;51.53;22.30;;;;;;;;;;5128133;27;20665;-81
2023/12/18 01:04:47;;;;;;;35.30;17.88;;;;;;;;;;5127399;27;20043;-81
2023/12/18 01:07:13;;;;;;;36.97;17.15;;;;;;;;;;5121240;27;20043;-79
2023/12/18 01:09:40;;;;;;;40.70;17.77;;;;;;;;;;5126094;27;20037;-80
2023/12/18 01:12:08;;;;;;;36.92;19.05;;;;;;;;;;5123662;27;20133;-80
2023/12/18 01:14:35;;;;;;;32.67;16.25;;;;;;;;;;5116084;27;20126;-80
2023/12/18 01:17:01;;;;;;;31.33;15.55;;;;;;;;;;5107415;27;20043;-81
2023/12/18 01:19:27;;;;;;;35.75;15.27;;;;;;;;;;5115284;27;20050;-81
2023/12/18 01:21:53;;;;;;;37.08;16.92;;;;;;;;;;5124415;27;20467;-80
2023/12/18 01:24:19;;;;;;;31.60;17.23;;;;;;;;;;5126371;27;20045;-80
2023/12/18 01:26:45;;;;;;;37.10;18.25;;;7.50;99.90;;;;;;5116235;27;20515;-81
2023/12/18 01:29:11;;;;;;;34.15;16.38;;;7.20;99.90;;;;;;5100505;27;20471;-80
2023/12/18 01:31:37;;;;;;;34.92;18.70;;;;;;;;;;5109555;27;20169;-81
2023/12/18 01:34:03;;;;;;;34.25;17.55;;;;;;;;;;5125989;27;20600;-81
2023/12/18 01:36:29;;;;;;;37.80;17.55;;;;;;;;;;5125128;27;20538;-81
2023/12/18 01:38:56;;;;;;;36.22;19.60;;;;;;;;;;5108853;27;20049;-82
2023/12/18 01:41:22;;;;;;;34.35;17.00;;;;;;;;;;5108790;27;20110;-81
2023/12/18 01:43:48;;;;;;;37.00;17.35;;;;;;;;;;5109225;27;20042;-80
2023/12/18 01:46:24;;;;;;;31.65;16.13;;;7.20;99.90;;;;;;5109506;27;20047;-81
2023/12/18 01:48:51;;;;;;;49.40;18.27;;;;;;;;;;5109592;27;20047;-81
2023/12/18 01:51:19;;;;;;;38.60;16.88;;;7.30;99.90;;;;;;5109374;27;20038;-82
2023/12/18 01:53:47;;;;;;;34.15;16.17;;;;;;;;;;5109682;27;20369;-81
2023/12/18 01:56:15;;;;;;;38.28;16.55;;;;;;;;;;5145075;27;20039;-81
2023/12/18 01:58:42;;;;;;;34.20;15.90;;;;;;;;;;5108687;27;20046;-81
2023/12/18 02:01:09;;;;;;;35.25;15.20;;;;;;;;;;5109116;27;20047;-80
2023/12/18 02:03:35;;;;;;;29.52;14.85;;;;;;;;;;5108929;27;20101;-81
2023/12/18 02:06:01;;;;;;;29.40;15.63;;;;;;;;;;5125966;27;20046;-81
2023/12/18 02:08:29;;;;;;;31.60;13.90;;;;;;;;;;5108431;27;20122;-81
2023/12/18 02:10:55;;;;;;;35.35;15.85;;;7.50;99.90;;;;;;5108292;27;20046;-81
2023/12/18 02:13:22;;;;;;;39.85;16.33;;;;;;;;;;5108828;27;20093;-81
2023/12/18 02:15:48;;;;;;;37.47;15.80;;;;;;;;;;5108428;27;20039;-82
2023/12/18 02:18:14;;;;;;;39.47;15.45;;;;;;;;;;5125339;27;20043;-81
2023/12/18 02:20:43;;;;;;;32.67;15.00;;;;;;;;;;5108191;27;20043;-81
2023/12/18 02:23:10;;;;;;;32.92;16.75;;;;;;;;;;5125692;27;20077;-81
2023/12/18 02:25:36;;;;;;;41.30;16.77;;;;;;;;;;5108876;27;20454;-81
2023/12/18 02:28:03;;;;;;;28.50;16.02;;;;;;;;;;5108095;27;20046;-81
2023/12/18 02:30:35;;;;;;;34.33;15.68;;;7.50;99.90;;;;;;5108145;27;20672;-81
2023/12/18 02:33:01;;;;;;;30.73;15.30;;;;;;;;;;5125324;27;20046;-81
2023/12/18 02:35:27;;;;;;;35.42;14.52;;;;;;;;;;5108959;27;20038;-81
2023/12/18 02:37:53;;;;;;;33.42;15.45;;;;;;;;;;5125816;27;20384;-81
2023/12/18 02:40:19;;;;;;;26.02;14.18;;;;;;;;;;5109715;27;20501;-80
2023/12/18 02:42:45;;;;;;;33.10;14.95;;;;;;;;;;5109506;27;20070;-81
2023/12/18 02:45:12;;;;;;;33.25;14.75;;;;;;;;;;5109579;27;20391;-81
2023/12/18 02:47:38;;;;;;;37.70;17.40;;;;;;;;;;5109016;27;20042;-81
2023/12/18 02:50:06;;;;;;;38.67;16.58;;;;;;;;;;5125171;27;20535;-80
2023/12/18 02:52:32;;;;;;;29.10;15.13;;;;;;;;;;5125902;27;20088;-82
2023/12/18 02:55:00;;;;;;;33.38;15.40;;;;;;;;;;5111647;27;20085;-81
2023/12/18 02:57:26;;;;;;;34.53;14.48;;;;;;;;;;5130170;27;20149;-81
2023/12/18 02:59:52;;;;;;;27.42;15.43;;;;;;;;;;5112928;27;20073;-80
2023/12/18 03:02:18;;;;;;;30.73;14.27;;;;;;;;;;5113437;27;20031;-81
2023/12/18 03:04:44;;;;;;;37.70;16.60;;;;;;;;;;5113801;27;20042;-81
2023/12/18 03:07:10;;;;;;;27.75;14.93;;;;;;;;;;5113568;27;20030;-80
2023/12/18 03:09:37;;;;;;;29.88;14.55;;;;;;;;;;5113592;27;20080;-80
2023/12/18 03:12:03;;;;;;;32.40;16.17;;;;;;;;;;5112986;27;20035;-80
2023/12/18 03:14:29;;;;;;;38.00;16.02;;;;;;;;;;5113734;27;20039;-80
2023/12/18 03:16:55;;;;;;;31.95;15.68;;;;;;;;;;5093101;27;20408;-80
2023/12/18 03:19:24;;;;;;;40.05;17.25;;;;;;;;;;5109604;27;20511;-81
2023/12/18 03:21:50;;;;;;;37.40;15.90;;;;;;;;;;5109319;27;20043;-81
2023/12/18 03:24:17;;;;;;;36.88;15.48;;;;;;;;;;5092375;27;20078;-81
2023/12/18 03:26:43;;;;;;;34.08;15.23;;;;;;;;;;5092342;27;20043;-81
2023/12/18 03:29:09;;;;;;;35.00;16.13;;;;;;;;;;5092238;27;20039;-81
2023/12/18 03:31:35;;;;;;;32.40;15.48;;;;;;;;;;5092127;27;20039;-82
2023/12/18 03:34:01;;;;;;;33.85;17.02;;;;;;;;;;5092280;27;20088;-81
2023/12/18 03:36:27;;;;;;;32.78;14.50;;;;;;;;;;5108998;27;20049;-81
2023/12/18 03:38:53;;;;;;;35.30;16.40;;;;;;;;;;5127204;27;20035;-82
2023/12/18 03:41:20;;;;;;;27.88;15.48;;;;;;;;;;5108350;27;20496;-82
2023/12/18 03:43:46;;;;;;;43.25;16.17;;;;;;;;;;5108511;27;20039;-82
2023/12/18 03:46:12;;;;;;;35.35;16.65;;;;;;;;;;5091880;27;20544;-81
2023/12/18 03:48:38;;;;;;;36.22;17.10;;;;;;;;;;5091230;27;20540;-81
2023/12/18 03:51:05;;;;;;;30.92;15.18;;;;;;;;;;5090911;27;20042;-80
2023/12/18 03:53:31;;;;;;;29.90;16.10;;;;;;;;;;5091282;27;20789;-80
2023/12/18 03:55:57;;;;;;;38.30;16.30;;;;;;;;;;5108203;27;20039;-81
2023/12/18 03:58:23;;;;;;;30.88;16.17;;;;;;;;;;5108120;27;20039;-82
2023/12/18 04:00:50;;;;;;;33.75;15.98;;;;;;;;;;5091222;27;20043;-81
2023/12/18 04:03:16;;;;;;;33.15;16.95;;;;;;;;;;5091687;27;20039;-81
2023/12/18 04:05:42;;;;;;;38.72;16.02;;;;;;;;;;5108549;27;20467;-82
2023/12/18 04:08:08;;;;;;;37.10;16.85;;;;;;;;;;5092062;27;20047;-82
2023/12/18 04:10:34;;;;;;;41.03;16.27;;;;;;;;;;5109009;27;20369;-81
2023/12/18 04:13:00;;;;;;;37.88;17.35;;;;;;;;;;5108332;27;20039;-80
2023/12/18 04:15:27;;;;;;;28.02;14.82;;;;;;;;;;5091168;27;20046;-81
2023/12/18 04:17:55;;;;;;;31.25;14.57;;;;;;;;;;5107830;27;20058;-79
2023/12/18 04:20:21;;;;;;;35.50;16.27;;;;;;;;;;5107639;27;20062;-81
2023/12/18 04:22:47;;;;;;;32.20;14.85;;;;;;;;;;5091100;27;20165;-82
2023/12/18 04:25:13;;;;;;;35.20;14.75;;;;;;;;;;5091393;27;20149;-81
2023/12/18 04:27:39;;;;;;;29.48;12.55;;;;;;;;;;5090911;27;20035;-81
2023/12/18 04:30:06;;;;;;;32.80;14.52;;;;;;;;;;5091083;27;20102;-82
2023/12/18 04:32:32;;;;;;;28.92;15.65;;;;;;;;;;5108076;27;20492;-80
2023/12/18 04:34:58;;;;;;;33.00;16.33;;;;;;;;;;5107689;27;20035;-82
2023/12/18 04:37:24;;;;;;;29.58;16.58;;;;;;;;;;5107867;27;20039;-81
2023/12/18 04:39:50;;;;;;;32.22;19.65;;;;;;;;;;5107565;27;20150;-81
2023/12/18 04:42:16;;;;;;;36.40;19.38;;;;;;;;;;5090877;27;20043;-81
2023/12/18 04:44:43;;;;;;;32.40;19.27;;;;;;;;;;5091857;27;20043;-80
2023/12/18 04:47:11;;;;;;;36.40;18.60;;;;;;;;;;5110842;27;20115;-82
2023/12/18 04:49:37;;;;;;;37.53;17.25;;;;;;;;;;5094318;27;20045;-81
2023/12/18 04:52:03;;;;;;;33.75;16.50;;;;;;;;;;5094698;27;20042;-81
2023/12/18 04:54:29;;;;;;;30.55;16.17;;;;;;;;;;5096613;27;20579;-81
2023/12/18 04:56:55;;;;;;;33.75;16.25;;;;;;;;;;5110540;27;20043;-82
2023/12/18 04:59:22;;;;;;;41.13;18.58;;;;;;;;;;5126901;27;20835;-80
2023/12/18 05:01:48;;;;;;;30.98;16.88;;;;;;;;;;5090221;27;20046;-82
2023/12/18 05:04:14;;;;;;;28.80;16.70;;;;;;;;;;5090871;27;20047;-82
2023/12/18 05:06:41;;;;;;;30.10;16.40;;;;;;;;;;5107709;27;20610;-81
2023/12/18 05:09:07;;;;;;;31.33;18.10;;;;;;;;;;5090442;27;20609;-82
2023/12/18 05:11:33;;;;;;;26.48;17.02;;;;;;;;;;5090103;27;20695;-81
2023/12/18 05:13:59;;;;;;;34.25;16.42;;;;;;;;;;5090175;27;20043;-82
2023/12/18 05:16:25;;;;;;;32.15;16.15;;;;;;;;;;5106838;28;20039;-83
2023/12/18 05:18:53;;;;;;;33.20;16.30;;;;;;;;;;5090345;27;20043;-83
2023/12/18 05:21:19;;;;;;;36.05;17.70;;;;;;;;;;5106960;27;20038;-81
2023/12/18 05:23:49;;;;;;;38.17;16.00;;;7.10;99.90;;;;;;5106485;27;20049;-82
2023/12/18 05:26:16;;;;;;;33.15;17.65;;;;;;;;;;5107139;27;20035;-83
2023/12/18 05:28:42;;;;;;;36.15;15.45;;;;;;;;;;5089384;27;20524;-83
2023/12/18 05:31:11;;;;;;;33.58;15.63;;;7.50;99.90;;;;;;5089615;27;20185;-83
2023/12/18 05:33:37;;;;;;;31.05;16.65;;;;;;;;;;5089692;27;20415;-83
2023/12/18 05:36:03;;;;;;;30.35;14.68;;;;;;;;;;5106570;27;20043;-82
2023/12/18 05:38:30;;;;;;;30.77;15.00;;;;;;;;;;5089237;27;20086;-82
2023/12/18 05:40:56;;;;;;;31.75;15.38;;;;;;;;;;5088935;27;20042;-82
2023/12/18 05:43:22;;;;;;;23.83;13.88;;;;;;;;;;5106014;27;20047;-82
2023/12/18 05:45:48;;;;;;;32.10;15.13;;;;;;;;;;5089353;27;20556;-82
2023/12/18 05:48:14;;;;;;;35.92;15.15;;;;;;;;;;5124899;27;20162;-82
2023/12/18 05:50:40;;;;;;;28.33;15.48;;;;;;;;;;5089323;27;20039;-82
2023/12/18 05:53:06;;;;;;;30.08;14.70;;;;;;;;;;5105811;27;20075;-82
2023/12/18 05:55:33;;;;;;;24.65;13.48;;;;;;;;;;5105831;27;20072;-82
2023/12/18 05:57:59;;;;;;;28.30;13.27;;;;;;;;;;5106042;27;20107;-81
2023/12/18 06:00:25;;;;;;;31.20;15.25;;;;;;;;;;5105722;27;20039;-82
2023/12/18 06:02:51;;;;;;;27.80;13.25;;;;;;;;;;5087871;27;20075;-81
2023/12/18 06:05:17;;;;;;;35.30;14.02;;;;;;;;;;5088208;27;20074;-82
2023/12/18 06:07:43;;;;;;;37.05;13.15;;;;;;;;;;5105133;27;20141;-82
2023/12/18 06:10:10;;;;;;;31.08;15.27;;;;;;;;;;5105326;27;20045;-82
2023/12/18 06:12:36;;;;;;;29.63;13.13;;;7.80;99.90;;;;;;5088824;27;20039;-81
2023/12/18 06:15:02;;;;;;;35.00;14.77;;;7.70;99.90;;;;;;5088927;27;20050;-81
2023/12/18 06:17:29;;;;;;;36.25;14.75;;;;;;;;;;5106351;27;20154;-83
2023/12/18 06:19:55;;;;;;;27.17;12.98;;;;;;;;;;5088619;27;20047;-82
2023/12/18 06:22:22;;;;;;;33.78;16.10;;;;;;;;;;5105542;27;20605;-82
2023/12/18 06:24:48;;;;;;;37.75;15.63;;;;;;;;;;5105179;27;20096;-82
2023/12/18 06:27:14;;;;;;;30.10;15.40;;;;;;;;;;5088364;27;20088;-82
2023/12/18 06:29:42;;;;;;;33.75;17.13;;;;;;;;;;5087798;28;20039;-82
2023/12/18 06:32:09;;;;;;;27.50;14.23;;;;;;;;;;5105164;27;20039;-82
2023/12/18 06:34:35;;;;;;;27.38;14.10;;;;;;;;;;5092056;27;20034;-82
2023/12/18 06:37:01;;;;;;;35.55;15.13;;;;;;;;;;5125726;27;20102;-83
2023/12/18 06:39:27;;;;;;;30.67;15.50;;;;;;;;;;5108709;27;20043;-82
2023/12/18 06:41:53;;;;;;;32.08;14.98;;;;;;;;;;5125372;27;20047;-81
2023/12/18 06:44:19;;;;;;;29.85;14.38;;;;;;;;;;5125879;27;20570;-83
2023/12/18 06:46:46;;;;;;;30.13;14.45;;;;;;;;;;5109189;27;20529;-81
2023/12/18 06:49:12;;;;;;;29.75;14.32;;;;;;;;;;5109210;27;20046;-83
2023/12/18 06:51:38;;;;;;;30.40;14.95;;;;;;;;;;5125621;27;20039;-82
2023/12/18 06:54:04;;;;;;;27.10;14.73;;;7.60;99.90;;;;;;5109136;27;20108;-82
2023/12/18 06:56:30;;;;;;;37.67;15.50;;;;;;;;;;5126160;27;20517;-82
2023/12/18 06:58:56;;;;;;;35.70;16.00;;;;;;;;;;5109542;27;20061;-82
2023/12/18 07:01:22;;;;;;;34.38;15.15;;;;;;;;;;5109451;27;20049;-80
2023/12/18 07:03:48;;;;;;;28.88;14.60;;;;;;;;;;5108928;27;20043;-81
2023/12/18 07:06:17;;;;;;;28.95;14.98;;;7.80;99.90;;;;;;5108956;27;20495;-81
2023/12/18 07:08:43;;;;;;;29.20;16.17;;;;;;;;;;5108853;27;20280;-81
2023/12/18 07:11:09;;;;;;;36.97;17.38;;;;;;;;;;5108703;27;20105;-80
2023/12/18 07:13:35;;;;;;;30.73;17.08;;;;;;;;;;5125409;27;20038;-80
2023/12/18 07:16:01;;;;;;;29.52;16.73;;;;;;;;;;5125528;27;20122;-81
2023/12/18 07:18:27;;;;;;;35.70;17.10;;;;;;;;;;5125819;27;20078;-81
2023/12/18 07:20:53;;;;;;;30.27;16.13;;;;;;;;;;5125891;27;20046;-81
2023/12/18 07:23:19;;;;;;;36.28;18.50;;;;;;;;;;5108790;27;20043;-80
2023/12/18 07:25:46;;;;;;;31.67;18.17;;;;;;;;;;5108128;27;20503;-81
2023/12/18 07:28:11;;;;;;;33.80;18.38;;;7.80;99.90;;;;;;5124972;27;20130;-81
2023/12/18 07:30:38;;;;;;;33.35;18.92;;;;;;;;;;5124809;27;20121;-81
2023/12/18 07:33:04;;;;;;;38.28;19.80;;;7.60;99.90;;;;;;5108189;27;20407;-80
2023/12/18 07:35:30;;;;;;;37.05;19.13;;;;;;;;;;5125533;27;20043;-79
2023/12/18 07:37:56;;;;;;;35.55;18.58;;;;;;;;;;5104895;27;20047;-81
2023/12/18 07:40:22;;;;;;;39.22;19.25;;;;;;;;;;5097914;27;20293;-81
2023/12/18 07:42:48;;;;;;;31.48;18.83;;;;;;;;;;5117486;27;20039;-80
2023/12/18 07:45:14;;;;;;;37.03;19.13;;;;;;;;;;5103636;27;20090;-81
2023/12/18 07:47:41;;;;;;;40.15;18.38;;;;;;;;;;5116877;27;20035;-80
2023/12/18 07:50:07;;;;;;;38.05;19.45;;;7.60;99.90;;;;;;5101977;27;20037;-80
2023/12/18 07:52:34;;;;;;;36.30;18.45;;;;;;;;;;5101572;27;20039;-81
2023/12/18 07:55:00;;;;;;;36.25;21.30;;;;;;;;;;5116905;27;20039;-81
2023/12/18 07:57:26;;;;;;;36.08;19.73;;;;;;;;;;5101763;27;20050;-80
2023/12/18 07:59:54;;;;;;;34.28;17.73;;;;;;;;;;5117290;27;20403;-81
2023/12/18 08:02:20;;;;;;;34.85;19.08;;;;;;;;;;5099253;27;20043;-81
2023/12/18 08:04:46;;;;;;;37.53;20.45;;;;;;;;;;5093116;27;20115;-80
2023/12/18 08:07:12;;;;;;;37.50;21.85;;;;;;;;;;5107586;27;20759;-81
2023/12/18 08:09:40;;;;;;;37.78;21.63;;;;;;;;;;5107673;27;20574;-80
2023/12/18 08:12:06;;;;;;;37.72;20.25;;;;;;;;;;5107377;27;20129;-81
2023/12/18 08:14:33;;;;;;;35.00;20.25;;;;;;;;;;5090626;27;20453;-81
2023/12/18 08:16:59;;;;;;;36.42;19.02;;;;;;;;;;5090197;27;20039;-81
2023/12/18 08:19:26;;;;;;;38.72;21.67;;;;;;;;;;5107847;27;20558;-80
2023/12/18 08:21:52;;;;;;;34.72;20.17;;;;;;;;;;5107418;27;20053;-81
2023/12/18 08:24:20;;;;;;;43.78;21.70;;;;;;;;;;5108286;27;20552;-81
2023/12/18 08:26:48;;;;;;;36.05;20.42;;;7.70;99.90;;;;;;5097471;27;20039;-80
2023/12/18 08:29:15;;;;;;;38.22;21.60;;;;;;;;;;5098850;27;20030;-81
2023/12/18 08:31:42;;;;;;;37.28;21.75;;;;;;;;;;5118909;27;20042;-81
2023/12/18 08:34:09;;;;;;;38.30;21.33;;;;;;;;;;5115419;27;20503;-80
2023/12/18 08:36:36;;;;;;;49.00;24.50;;;;;;;;;;5127690;27;20119;-80
2023/12/18 08:39:03;;;;;;;39.25;22.88;;;;;;;;;;5127308;27;20050;-80
2023/12/18 08:41:29;;;;;;;42.10;23.10;;;;;;;;;;5110640;27;20043;-80
2023/12/18 08:43:55;;;;;;;40.08;23.35;;;;;;;;;;5124698;27;20491;-80
2023/12/18 08:46:21;;;;;;;44.08;22.05;;;;;;;;;;5108808;27;20057;-80
2023/12/18 08:48:47;;;;;;;32.03;21.63;;;;;;;;;;5127079;27;20046;-81
2023/12/18 08:51:16;;;;;;;33.33;22.20;;;;;;;;;;5124648;27;20463;-80
2023/12/18 08:53:42;;;;;;;40.92;22.00;;;;;;;;;;5123889;27;20039;-80
2023/12/18 08:56:08;;;;;;;41.25;22.83;;;;;;;;;;5110395;27;20049;-80
2023/12/18 08:58:34;;;;;;;43.88;23.15;;;;;;;;;;5130126;27;20695;-79
2023/12/18 09:01:00;;;;;;;40.03;22.27;;;;;;;;;;5110342;27;20042;-79
2023/12/18 09:03:27;;;;;;;40.53;22.13;;;;;;;;;;5112500;27;20041;-81
2023/12/18 09:05:54;;;;;;;41.58;23.27;;;;;;;;;;5110398;27;20117;-81
2023/12/18 09:08:20;;;;;;;42.38;23.60;;;;;;;;;;5123441;27;20042;-80
2023/12/18 09:10:46;;;;;;;48.03;24.30;;;;;;;;;;5109631;27;20138;-80
2023/12/18 09:13:12;;;;;;;45.35;23.58;;;;;;;;;;5126940;27;20035;-80
2023/12/18 09:15:40;;;;;;;44.47;24.08;;;;;;;;;;5109784;27;20062;-81
2023/12/18 09:18:07;;;;;;;41.15;22.38;;;;;;;;;;5109547;27;20750;-81
2023/12/18 09:20:33;;;;;;;45.00;25.02;;;;;;;;;;5126658;27;20107;-81
2023/12/18 09:22:59;;;;;;;46.67;25.23;;;;;;;;;;5126131;27;20595;-80
2023/12/18 09:25:25;;;;;;;40.38;21.88;;;;;;;;;;5126372;27;20050;-80
2023/12/18 09:27:51;;;;;;;48.25;23.90;;;;;;;;;;5125965;27;20457;-81
2023/12/18 09:30:18;;;;;;;49.58;23.85;;;;;;;;;;5124319;27;20883;-79
2023/12/18 09:32:44;;;;;;;40.28;22.77;;;;;;;;;;5126272;27;20117;-80
2023/12/18 09:35:10;;;;;;;40.85;21.60;;;;;;;;;;5125914;27;20031;-80
2023/12/18 09:37:36;;;;;;;41.70;20.63;;;;;;;;;;5122651;27;20126;-80
2023/12/18 09:40:03;;;;;;;38.08;23.23;;;;;;;;;;5108789;27;20042;-81
2023/12/18 09:42:30;;;;;;;45.53;23.25;;;;;;;;;;5107870;27;20057;-81
2023/12/18 09:44:58;;;;;;;44.05;22.33;;;;;;;;;;5125865;27;20171;-81
2023/12/18 09:47:25;;;;;;;35.83;22.55;;;;;;;;;;5125956;27;20054;-81
2023/12/18 09:49:52;;;;;;;37.55;21.65;;;;;;;;;;5126311;27;20086;-81
2023/12/18 09:52:22;;;;;;;40.00;22.30;;;;;;;;;;5125891;27;20784;-81
2023/12/18 09:54:49;;;;;;;41.88;23.95;;;;;;;;;;5124928;27;20041;-81
2023/12/18 09:57:17;;;;;;;43.40;22.90;;;;;;;;;;5126001;27;20051;-80
2023/12/18 09:59:44;;;;;;;38.97;21.10;;;;;;;;;;5126040;27;20043;-80
2023/12/18 10:02:12;;;;;;;45.33;23.58;;;;;;;;;;5125961;27;20049;-80
2023/12/18 10:04:42;;;;;;;42.38;23.05;;;;;;;;;;5126232;27;20098;-81
2023/12/18 10:07:08;;;;;;;34.05;21.20;;;;;;;;;;5126787;27;20407;-82
2023/12/18 10:09:35;;;;;;;48.10;22.30;;;;;;;;;;5126388;27;20503;-81
2023/12/18 10:12:03;;;;;;;38.95;22.60;;;;;;;;;;5125820;27;20038;-78
2023/12/18 10:14:29;;;;;;;38.05;22.67;;;;;;;;;;5125537;27;20049;-81
2023/12/18 10:16:56;;;;;;;52.10;25.00;;;;;;;;;;5125120;27;20534;-81
2023/12/18 10:19:24;;;;;;;34.42;23.67;;;;;;;;;;5126068;27;20074;-79
2023/12/18 10:21:50;;;;;;;38.05;22.80;;;;;;;;;;5108418;27;20490;-79
2023/12/18 10:24:16;;;;;;;40.42;23.08;;;8.20;99.90;;;;;;5108951;27;20042;-80
2023/12/18 10:26:42;;;;;;;36.00;22.45;;;;;;;;;;5126432;27;20041;-79
2023/12/18 10:29:09;;;;;;;39.03;22.23;;;;;;;;;;5117777;27;20047;-80
2023/12/18 10:31:35;;;;;;;39.33;24.58;;;;;;;;;;5087519;27;20096;-80
2023/12/18 10:34:05;;;;;;;39.65;23.85;;;;;;;;;;5105490;27;20043;-79
2023/12/18 10:36:33;;;;;;;46.03;22.63;;;;;;;;;;5088121;28;20039;-79
2023/12/18 10:39:00;;;;;;;40.88;22.73;;;;;;;;;;5105282;28;20061;-80
2023/12/18 10:41:28;;;;;;;41.03;24.00;;;;;;;;;;5088387;28;20058;-80
2023/12/18 10:43:55;;;;;;;48.95;23.63;;;8.20;99.90;;;;;;5105663;28;20086;-80
2023/12/18 10:46:24;;;;;;;37.08;23.20;;;8.20;99.90;;;;;;5087571;28;20100;-80
2023/12/18 10:48:52;;;;;;;45.42;23.50;;;8.20;99.90;;;;;;5087640;28;20077;-80
2023/12/18 10:51:23;;;;;;;42.28;22.35;;;;;;;;;;5088695;28;20571;-78
2023/12/18 10:53:49;;;;;;;41.88;23.08;;;;;;;;;;5125670;27;20047;-80
2023/12/18 10:56:17;;;;;;;40.47;22.90;;;8.30;99.90;;;;;;5126088;27;20122;-80
2023/12/18 10:58:44;;;;;;;44.17;23.98;;;8.30;99.90;;;;;;5127698;27;20119;-80
2023/12/18 11:01:14;;;;;;;44.80;20.95;;;8.30;99.90;;;;;;5127652;27;20176;-80
2023/12/18 11:03:40;;;;;;;42.83;23.25;;;;;;;;;;5110844;27;20470;-80
2023/12/18 11:06:07;;;;;;;38.78;23.15;;;8.40;99.90;;;;;;5127185;27;20048;-81
2023/12/18 11:08:34;;;;;;;41.63;22.23;;;;;;;;;;5126554;27;20425;-80
2023/12/18 11:11:02;;;;;;;42.60;23.00;;;8.50;99.90;;;;;;5126218;27;20050;-81
2023/12/18 11:13:29;;;;;;;47.35;22.70;;;8.50;99.90;;;;;;5125924;27;20042;-81
2023/12/18 11:16:33;;;;;;;43.20;22.88;;;8.50;99.90;;;;;;5110738;27;20039;-81
2023/12/18 11:19:36;;;;;;;38.13;24.35;;;8.50;99.90;;;;;;5112639;27;20046;-81
2023/12/18 11:22:06;;;;;;;41.10;21.35;;;;;;;;;;5129135;27;20138;-81
2023/12/18 11:24:38;;;;;;;39.33;22.42;;;;;;;;;;5129380;27;20042;-81
2023/12/18 11:27:06;;;;;;;38.97;21.80;;;8.50;99.90;;;;;;5129393;27;20042;-81
2023/12/18 11:29:36;;;;;;;38.70;22.50;;;8.50;99.90;;;;;;5111845;27;20106;-80
2023/12/18 11:32:03;;;;;;;44.17;24.20;;;8.60;99.90;;;;;;5128944;27;20050;-82
2023/12/18 11:34:29;;;;;;;40.95;22.48;;;;;;;;;;5129044;27;20043;-80
2023/12/18 11:36:55;;;;;;;42.78;24.30;;;;;;;;;;5129318;27;20198;-81
2023/12/18 11:39:25;;;;;;;59.50;24.33;;;;;;;;;;5111574;27;20042;-81
2023/12/18 11:41:51;;;;;;;54.60;24.80;;;;;;;;;;5105807;27;20103;-81
2023/12/18 11:44:17;;;;;;;45.45;24.92;;;;;;;;;;5129096;27;20061;-81
2023/12/18 11:46:46;;;;;;;38.03;21.10;;;;;;;;;;5128940;27;20038;-80
2023/12/18 11:49:13;;;;;;;36.50;21.15;;;8.70;99.90;;;;;;5111326;27;20042;-82
2023/12/18 11:51:43;;;;;;;45.90;23.50;;;;;;;;;;5111499;27;20042;-80
2023/12/18 11:54:14;;;;;;;43.65;24.02;;;8.70;99.90;;;;;;5109043;27;20126;-81
2023/12/18 11:56:41;;;;;;;44.53;23.88;;;;;;;;;;5091034;27;20039;-81
2023/12/18 11:59:10;;;;;;;38.90;21.92;;;8.70;99.90;;;;;;5091086;27;20047;-82
2023/12/18 12:01:37;;;;;;;41.17;22.50;;;;;;;;;;5107878;27;20047;-81
2023/12/18 12:04:04;;;;;;;36.88;20.67;;;;;;;;;;5107763;27;20511;-82
2023/12/18 12:06:31;;;;;;;38.72;21.45;;;;;;;;;;5107999;27;20047;-81
2023/12/18 12:08:57;;;;;;;39.30;21.88;;;;;;;;;;5110375;27;20798;-80
2023/12/18 12:11:23;;;;;;;37.97;22.10;;;;;;;;;;5108433;27;20574;-81
2023/12/18 12:13:54;;;;;;;44.75;20.85;;;8.60;99.90;;;;;;5110831;27;20046;-81
2023/12/18 12:16:20;;;;;;;35.78;22.38;;;;;;;;;;5110203;27;20038;-82
2023/12/18 12:18:48;;;;;;;44.15;24.10;;;8.70;99.90;;;;;;5111380;27;20388;-81
2023/12/18 12:21:16;;;;;;;38.13;22.27;;;8.60;99.90;;;;;;5128216;27;20042;-80
2023/12/18 12:23:42;;;;;;;37.88;23.27;;;;;;;;;;5128234;27;20047;-82
2023/12/18 12:26:09;;;;;;;39.00;20.60;;;8.60;99.90;;;;;;5110296;27;20120;-81
2023/12/18 12:28:35;;;;;;;36.88;22.65;;;;;;;;;;5127835;27;20138;-82
2023/12/18 12:31:03;;;;;;;30.95;19.98;;;;;;;;;;5110628;27;20154;-81
2023/12/18 12:33:42;;;;;;;37.15;20.77;;;8.50;99.90;;;;;;5127504;27;20054;-80
2023/12/18 12:36:09;;;;;;;35.47;21.92;;;8.60;99.90;;;;;;5110740;27;20042;-81
2023/12/18 12:38:36;;;;;;;39.60;22.83;;;;;;;;;;5110873;27;20046;-80
2023/12/18 12:41:03;;;;;;;34.13;21.85;;;;;;;;;;5127986;27;20042;-82
2023/12/18 12:43:30;;;;;;;41.38;20.63;;;;;;;;;;5111016;27;20056;-81
2023/12/18 12:45:56;;;;;;;36.83;23.30;;;;;;;;;;5110704;27;20107;-81
2023/12/18 12:48:23;;;;;;;47.55;24.60;;;;;;;;;;5110996;27;20043;-81
2023/12/18 12:50:49;;;;;;;46.83;24.20;;;;;;;;;;5111405;27;20786;-81
2023/12/18 12:53:15;;;;;;;35.25;21.88;;;;;;;;;;5111483;27;20149;-81
2023/12/18 12:55:42;;;;;;;43.50;24.08;;;8.50;99.90;;;;;;5111290;27;20710;-80
2023/12/18 12:58:08;;;;;;;45.10;23.42;;;;;;;;;;5110978;27;20052;-81
2023/12/18 13:00:35;;;;;;;37.85;21.40;;;;;;;;;;5111516;27;20502;-80
2023/12/18 13:03:05;;;;;;;39.72;23.13;;;;;;;;;;5128960;27;20046;-81
2023/12/18 13:05:31;;;;;;;35.42;21.65;;;;;;;;;;5110968;27;20043;-81
2023/12/18 13:08:00;;;;;;;37.85;21.98;;;;;;;;;;5111465;27;20043;-80
2023/12/18 13:10:30;;;;;;;46.40;24.67;;;8.20;99.90;;;;;;5110860;27;20066;-81
2023/12/18 13:12:57;;;;;;;44.13;23.15;;;;;;;;;;5127883;27;20057;-80
2023/12/18 13:15:23;;;;;;;43.95;21.98;;;;;;;;;;5127832;27;20102;-80
2023/12/18 13:17:49;;;;;;;42.03;24.92;;;;;;;;;;5110664;27;20057;-79
2023/12/18 13:20:20;;;;;;;34.45;22.30;;;;;;;;;;5127912;27;20042;-80
2023/12/18 13:22:47;;;;;;;32.45;22.25;;;;;;;;;;5128288;27;20057;-80
2023/12/18 13:25:14;;;;;;;42.70;22.63;;;;;;;;;;5128017;27;20052;-81
2023/12/18 13:27:40;;;;;;;39.47;22.60;;;;;;;;;;5127452;27;20487;-79
2023/12/18 13:30:08;;;;;;;40.65;22.80;;;8.40;99.90;;;;;;5127783;27;20061;-80
2023/12/18 13:32:35;;;;;;;37.10;21.45;;;;;;;;;;5127334;27;20042;-81
2023/12/18 13:35:02;;;;;;;39.50;22.73;;;;;;;;;;5126851;27;20111;-81
2023/12/18 13:37:28;;;;;;;40.20;22.30;;;;;;;;;;5108154;27;20076;-80
2023/12/18 13:39:54;;;;;;;36.28;22.23;;;;;;;;;;5109543;27;20046;-81
2023/12/18 13:42:20;;;;;;;44.65;24.63;;;;;;;;;;5126476;27;20137;-81
2023/12/18 13:44:48;;;;;;;43.38;23.23;;;;;;;;;;5110048;27;20095;-80
2023/12/18 13:47:14;;;;;;;38.33;22.30;;;;;;;;;;5109754;27;20106;-81
2023/12/18 13:49:41;;;;;;;33.13;22.05;;;;;;;;;;5127015;27;20046;-80
2023/12/18 13:52:07;;;;;;;45.58;25.02;;;;;;;;;;5126743;27;20043;-80
2023/12/18 13:54:33;;;;;;;48.00;23.55;;;;;;;;;;5109841;27;20497;-80
2023/12/18 13:57:00;;;;;;;37.72;21.38;;;;;;;;;;5109666;27;20138;-80
2023/12/18 13:59:27;;;;;;;39.72;22.95;;;;;;;;;;5109649;27;20130;-81
2023/12/18 14:01:53;;;;;;;38.60;23.05;;;;;;;;;;5109505;27;20052;-80